createdAt,value
2018-01-12T00:02:14.286Z,4.43
2018-01-12T00:04:48.372Z,3.23
2018-01-12T00:07:22.308Z,6.13
2018-01-12T00:09:56.221Z,5.10
2018-01-12T00:12:30.196Z,2.53
2018-01-12T00:15:04.207Z,2.80
2018-01-12T00:17:38.424Z,2.23
2018-01-12T00:20:12.567Z,2.83
2018-01-12T00:22:47.164Z,2.00
2018-01-12T00:25:21.410Z,3.43
2018-01-12T00:27:55.388Z,2.40
2018-01-12T00:30:29.499Z,2.50
2018-01-12T00:33:03.646Z,4.33
2018-01-12T00:35:37.698Z,3.10
2018-01-12T00:38:11.871Z,2.77
2018-01-12T00:40:45.781Z,3.50
2018-01-12T00:43:19.834Z,2.47
2018-01-12T00:45:53.755Z,2.23
2018-01-12T00:48:28.188Z,2.03
2018-01-12T00:51:02.308Z,3.50
2018-01-12T00:53:36.391Z,3.77
2018-01-12T00:56:11.273Z,10.57
2018-01-12T00:58:45.360Z,3.17
2018-01-12T01:01:19.443Z,2.60
2018-01-12T01:03:53.380Z,3.70
2018-01-12T01:06:27.940Z,3.13
2018-01-12T01:09:02.731Z,3.77
2018-01-12T01:11:36.935Z,2.67
2018-01-12T01:14:11.052Z,3.83
2018-01-12T01:16:45.722Z,2.60
2018-01-12T01:19:19.723Z,3.63
2018-01-12T01:21:53.699Z,3.17
2018-01-12T01:24:27.920Z,2.80
2018-01-12T01:27:01.828Z,3.67
2018-01-12T01:29:35.664Z,3.40
2018-01-12T01:32:09.515Z,3.03
2018-01-12T01:34:43.334Z,4.63
2018-01-12T01:37:17.256Z,4.30
2018-01-12T01:39:51.476Z,2.30
2018-01-12T01:42:25.720Z,3.63
2018-01-12T01:44:59.793Z,3.67
2018-01-12T01:47:33.814Z,2.30
2018-01-12T01:50:07.854Z,3.00
2018-01-12T01:52:41.860Z,3.23
2018-01-12T01:55:15.744Z,2.70
2018-01-12T01:57:50.603Z,2.33
2018-01-12T02:00:24.359Z,5.20
2018-01-12T02:02:58.263Z,7.30
2018-01-12T02:05:32.192Z,5.03
2018-01-12T02:08:06.403Z,3.77
2018-01-12T02:10:40.415Z,3.60
2018-01-12T02:13:14.631Z,4.73
2018-01-12T02:15:48.734Z,4.23
2018-01-12T02:18:23.399Z,5.70
2018-01-12T02:20:57.475Z,6.60
2018-01-12T02:23:31.395Z,4.93
2018-01-12T02:26:05.160Z,4.13
2018-01-12T02:28:39.160Z,4.13
2018-01-12T02:31:13.310Z,2.80
2018-01-12T02:33:47.364Z,3.67
2018-01-12T02:36:21.375Z,3.23
2018-01-12T02:38:55.352Z,4.97
2018-01-12T02:41:29.399Z,3.40
2018-01-12T02:44:03.579Z,3.33
2018-01-12T02:46:37.590Z,5.53
2018-01-12T02:49:11.633Z,6.00
2018-01-12T02:51:45.747Z,3.87
2018-01-12T02:54:19.699Z,3.23
2018-01-12T02:56:53.519Z,3.50
2018-01-12T02:59:27.880Z,5.23
2018-01-12T03:02:01.756Z,3.93
2018-01-12T03:04:35.847Z,6.90
2018-01-12T03:07:10.009Z,3.10
2018-01-12T03:09:44.019Z,4.53
2018-01-12T03:12:18.137Z,3.30
2018-01-12T03:14:52.311Z,3.20
2018-01-12T03:17:26.432Z,4.07
2018-01-12T03:20:01.290Z,3.90
2018-01-12T03:22:35.208Z,3.53
2018-01-12T03:25:09.175Z,5.73
2018-01-12T03:27:43.117Z,5.40
2018-01-12T03:30:17.948Z,6.83
2018-01-12T03:32:53.128Z,7.23
2018-01-12T03:35:27.168Z,4.23
2018-01-12T03:38:01.272Z,8.47
2018-01-12T03:40:35.366Z,8.30
2018-01-12T03:43:09.508Z,8.63
2018-01-12T03:45:43.619Z,8.97
2018-01-12T03:48:17.723Z,10.90
2018-01-12T03:50:51.880Z,10.40
2018-01-12T03:53:25.861Z,8.53
2018-01-12T03:56:00.100Z,15.90
2018-01-12T03:58:34.762Z,7.13
2018-01-12T04:01:09.040Z,6.87
2018-01-12T04:03:43.119Z,14.20
2018-01-12T04:06:17.372Z,9.43
2018-01-12T04:08:51.387Z,7.23
2018-01-12T04:11:25.501Z,7.67
2018-01-12T04:13:59.920Z,5.87
2018-01-12T04:16:33.900Z,11.73
2018-01-12T04:19:08.112Z,6.00
2018-01-12T04:21:42.003Z,6.20
2018-01-12T04:24:15.927Z,12.73
2018-01-12T04:26:50.859Z,6.37
2018-01-12T04:29:24.964Z,5.63
2018-01-12T04:31:59.187Z,7.97
2018-01-12T04:34:33.736Z,5.20
2018-01-12T04:37:07.751Z,7.00
2018-01-12T04:39:41.869Z,11.60
2018-01-12T04:42:16.182Z,8.73
2018-01-12T04:44:50.091Z,6.67
2018-01-12T04:47:23.972Z,7.30
2018-01-12T04:49:58.225Z,5.63
2018-01-12T04:52:32.331Z,10.00
2018-01-12T04:55:06.216Z,5.63
2018-01-12T04:57:40.211Z,4.73
2018-01-12T05:00:15.797Z,12.33
2018-01-12T05:02:49.803Z,6.87
2018-01-12T05:05:23.915Z,7.90
2018-01-12T05:07:57.926Z,6.80
2018-01-12T05:10:32.044Z,7.33
2018-01-12T05:13:05.952Z,3.80
2018-01-12T05:15:39.914Z,5.90
2018-01-12T05:18:13.832Z,12.27
2018-01-12T05:20:48.563Z,7.10
2018-01-12T05:23:22.808Z,5.57
2018-01-12T05:25:56.818Z,5.77
2018-01-12T05:28:30.932Z,5.60
2018-01-12T05:31:04.911Z,7.73
2018-01-12T05:33:39.264Z,7.10
2018-01-12T05:36:13.373Z,5.77
2018-01-12T05:38:47.356Z,7.40
2018-01-12T05:41:21.468Z,6.60
2018-01-12T05:43:55.688Z,6.70
2018-01-12T05:46:29.696Z,6.33
2018-01-12T05:49:03.840Z,12.23
2018-01-12T05:51:37.717Z,9.10
2018-01-12T05:54:11.924Z,8.70
2018-01-12T05:56:46.036Z,9.40
2018-01-12T05:59:20.290Z,8.93
2018-01-12T06:02:06.381Z,7.50
2018-01-12T06:04:52.346Z,7.73
2018-01-12T06:07:26.548Z,8.53
2018-01-12T06:10:00.394Z,7.77
2018-01-12T06:12:34.363Z,8.20
2018-01-12T06:15:08.271Z,7.50
2018-01-12T06:17:42.293Z,9.93
2018-01-12T06:20:17.199Z,8.30
2018-01-12T06:22:51.228Z,9.10
2018-01-12T06:25:25.354Z,6.80
2018-01-12T06:28:00.184Z,6.80
2018-01-12T06:30:34.371Z,6.40
2018-01-12T06:33:08.392Z,7.30
2018-01-12T06:35:42.547Z,5.60
2018-01-12T06:38:16.528Z,14.03
2018-01-12T06:40:50.739Z,9.90
2018-01-12T06:43:24.756Z,13.70
2018-01-12T06:45:58.971Z,7.47
2018-01-12T06:48:33.175Z,6.10
2018-01-12T06:51:07.400Z,8.40
2018-01-12T06:53:42.203Z,8.87
2018-01-12T06:56:16.143Z,13.03
2018-01-12T06:58:50.382Z,8.97
2018-01-12T07:01:24.264Z,10.40
2018-01-12T07:03:58.306Z,9.63
2018-01-12T07:06:32.317Z,18.97
2018-01-12T07:09:06.148Z,13.03
2018-01-12T07:11:40.230Z,14.97
2018-01-12T07:14:15.060Z,15.47
2018-01-12T07:16:49.076Z,11.50
2018-01-12T07:19:23.081Z,13.60
2018-01-12T07:22:08.972Z,13.67
2018-01-12T07:24:42.847Z,16.67
2018-01-12T07:27:16.963Z,16.07
2018-01-12T07:29:50.963Z,14.97
2018-01-12T07:32:25.218Z,16.20
2018-01-12T07:34:59.107Z,14.27
2018-01-12T07:37:33.317Z,13.30
2018-01-12T07:40:07.557Z,16.90
2018-01-12T07:42:41.669Z,15.80
2018-01-12T07:45:15.679Z,16.27
2018-01-12T07:47:49.690Z,16.80
2018-01-12T07:50:23.672Z,18.43
2018-01-12T07:53:03.191Z,19.27
2018-01-12T07:55:37.764Z,22.30
2018-01-12T07:58:11.856Z,24.33
2018-01-12T08:00:51.657Z,25.60
2018-01-12T08:03:25.499Z,22.07
2018-01-12T08:06:00.231Z,21.20
2018-01-12T08:08:34.574Z,19.20
2018-01-12T08:11:08.370Z,19.53
2018-01-12T08:13:42.338Z,21.87
2018-01-12T08:16:16.947Z,17.37
2018-01-12T08:18:51.128Z,25.33
2018-01-12T08:21:25.241Z,17.67
2018-01-12T08:23:59.228Z,20.67
2018-01-12T08:26:33.419Z,24.93
2018-01-12T08:29:07.375Z,21.13
2018-01-12T08:31:41.123Z,22.73
2018-01-12T08:34:15.197Z,22.70
2018-01-12T08:36:49.076Z,25.83
2018-01-12T08:39:23.423Z,21.60
2018-01-12T08:41:57.479Z,18.87
2018-01-12T08:44:31.615Z,17.60
2018-01-12T08:47:05.859Z,17.97
2018-01-12T08:49:39.972Z,21.23
2018-01-12T08:52:14.085Z,18.80
2018-01-12T08:54:48.402Z,21.03
2018-01-12T08:57:22.418Z,19.70
2018-01-12T08:59:56.380Z,20.60
2018-01-12T09:02:30.204Z,23.47
2018-01-12T09:05:04.252Z,21.53
2018-01-12T09:07:38.148Z,24.43
2018-01-12T09:10:12.158Z,23.63
2018-01-12T09:12:45.979Z,20.63
2018-01-12T09:15:23.107Z,24.37
2018-01-12T09:18:01.257Z,21.90
2018-01-12T09:20:35.476Z,19.60
2018-01-12T09:23:22.077Z,20.37
2018-01-12T09:25:56.060Z,16.97
2018-01-12T09:28:30.173Z,21.77
2018-01-12T09:31:04.904Z,18.87
2018-01-12T09:33:39.718Z,20.23
2018-01-12T09:36:13.819Z,25.13
2018-01-12T09:38:53.722Z,23.37
2018-01-12T09:41:27.703Z,18.80
2018-01-12T09:44:01.950Z,17.10
2018-01-12T09:46:35.768Z,16.60
2018-01-12T09:49:10.579Z,18.70
2018-01-12T09:51:44.366Z,19.40
2018-01-12T09:54:18.396Z,20.73
2018-01-12T09:56:53.225Z,20.57
2018-01-12T09:59:30.103Z,22.97
2018-01-12T10:02:05.036Z,23.63
2018-01-12T10:04:38.949Z,21.13
2018-01-12T10:07:19.383Z,18.97
2018-01-12T10:09:53.259Z,21.67
2018-01-12T10:12:27.182Z,21.23
2018-01-12T10:15:01.207Z,26.23
2018-01-12T10:17:35.452Z,22.30
2018-01-12T10:20:15.491Z,25.67
2018-01-12T10:22:49.483Z,25.10
2018-01-12T10:25:23.523Z,20.80
2018-01-12T10:27:57.551Z,25.13
2018-01-12T10:31:03.758Z,20.40
2018-01-12T10:36:55.139Z,25.63
2018-01-12T10:39:29.019Z,25.87
2018-01-12T10:42:04.950Z,24.17
2018-01-12T10:44:38.912Z,24.40
2018-01-12T10:47:24.902Z,21.00
2018-01-12T10:50:17.627Z,18.70
2018-01-12T10:52:52.376Z,23.63
2018-01-12T10:55:26.361Z,21.73
2018-01-12T10:58:00.396Z,23.70
2018-01-12T11:00:35.204Z,22.53
2018-01-12T11:03:09.345Z,24.07
2018-01-12T11:05:43.327Z,26.00
2018-01-12T11:08:17.439Z,28.70
2018-01-12T11:10:51.530Z,23.40
2018-01-12T11:13:25.711Z,30.70
2018-01-12T11:15:59.802Z,32.10
2018-01-12T11:18:33.914Z,26.37
2018-01-12T11:21:07.903Z,23.67
2018-01-12T11:23:42.145Z,34.47
2018-01-12T11:26:16.357Z,25.83
2018-01-12T11:28:50.420Z,28.40
2018-01-12T11:31:24.555Z,27.67
2018-01-12T11:33:58.771Z,25.77
2018-01-12T11:36:32.884Z,30.00
2018-01-12T11:39:07.000Z,29.07
2018-01-12T11:41:41.138Z,31.03
2018-01-12T11:44:15.146Z,26.97
2018-01-12T11:46:49.366Z,26.57
2018-01-12T11:49:23.447Z,29.93
2018-01-12T11:51:57.555Z,30.60
2018-01-12T11:54:32.320Z,29.77
2018-01-12T11:57:06.427Z,28.63
2018-01-12T11:59:40.386Z,25.27
2018-01-12T12:02:14.700Z,34.10
2018-01-12T12:04:48.874Z,28.27
2018-01-12T12:07:22.835Z,28.03
2018-01-12T12:09:56.738Z,29.40
2018-01-12T12:12:30.871Z,25.80
2018-01-12T12:15:04.790Z,26.50
2018-01-12T12:17:38.922Z,20.13
2018-01-12T12:20:12.948Z,24.80
2018-01-12T12:22:47.020Z,23.67
2018-01-12T12:25:21.033Z,30.10
2018-01-12T12:27:55.066Z,29.97
2018-01-12T12:30:29.127Z,27.57
2018-01-12T12:33:03.394Z,26.07
2018-01-12T12:35:37.413Z,21.93
2018-01-12T12:38:11.524Z,28.93
2018-01-12T12:40:45.840Z,24.50
2018-01-12T12:43:20.271Z,23.60
2018-01-12T12:45:54.273Z,27.07
2018-01-12T12:48:28.384Z,23.20
2018-01-12T12:51:02.390Z,24.70
2018-01-12T12:53:36.502Z,24.57
2018-01-12T12:56:10.615Z,29.00
2018-01-12T12:58:44.626Z,21.27
2018-01-12T13:01:18.294Z,27.40
2018-01-12T13:03:52.419Z,23.90
2018-01-12T13:06:26.453Z,27.37
2018-01-12T13:09:00.415Z,26.43
2018-01-12T13:11:34.547Z,29.07
2018-01-12T13:14:08.759Z,50.50
2018-01-12T13:16:42.884Z,26.00
2018-01-12T13:19:17.191Z,29.37
2018-01-12T13:21:51.233Z,37.70
2018-01-12T13:24:25.243Z,28.33
2018-01-12T13:26:59.254Z,33.97
2018-01-12T13:29:33.315Z,34.57
2018-01-12T13:32:07.455Z,31.43
2018-01-12T13:34:41.695Z,34.67
2018-01-12T13:37:15.706Z,24.50
2018-01-12T13:39:49.691Z,26.07
2018-01-12T13:42:24.756Z,31.57
2018-01-12T13:44:58.865Z,32.60
2018-01-12T13:47:33.031Z,31.77
2018-01-12T13:50:07.143Z,34.17
2018-01-12T13:52:40.959Z,31.17
2018-01-12T13:55:15.111Z,28.13
2018-01-12T13:57:49.070Z,38.30
2018-01-12T14:00:23.138Z,32.37
2018-01-12T14:02:56.991Z,31.07
2018-01-12T14:05:31.847Z,32.93
2018-01-12T14:08:05.983Z,34.53
2018-01-12T14:10:39.968Z,32.80
2018-01-12T14:13:14.233Z,30.30
2018-01-12T14:15:48.425Z,34.50
2018-01-12T14:18:22.333Z,36.50
2018-01-12T14:20:56.343Z,36.93
2018-01-12T14:23:30.228Z,35.90
2018-01-12T14:26:04.472Z,36.63
2018-01-12T14:28:38.585Z,39.13
2018-01-12T14:31:12.590Z,33.00
2018-01-12T14:33:46.814Z,37.47
2018-01-12T14:36:20.895Z,32.60
2018-01-12T14:38:55.138Z,37.93
2018-01-12T14:41:29.736Z,35.50
2018-01-12T14:44:03.872Z,39.37
2018-01-12T14:46:38.599Z,34.87
2018-01-12T14:49:12.487Z,37.30
2018-01-12T14:51:46.391Z,34.20
2018-01-12T14:54:20.603Z,36.17
2018-01-12T14:56:54.647Z,32.63
2018-01-12T14:59:28.653Z,34.30
2018-01-12T15:02:02.848Z,39.07
2018-01-12T15:04:36.982Z,41.27
2018-01-12T15:07:10.967Z,33.77
2018-01-12T15:09:45.495Z,39.50
2018-01-12T15:12:20.291Z,34.47
2018-01-12T15:14:54.456Z,37.40
2018-01-12T15:17:28.444Z,33.57
2018-01-12T15:20:02.480Z,37.03
2018-01-12T15:22:37.260Z,37.67
2018-01-12T15:25:11.527Z,37.17
2018-01-12T15:27:45.635Z,30.40
2018-01-12T15:30:19.651Z,36.60
2018-01-12T15:32:53.527Z,34.03
2018-01-12T15:35:27.880Z,32.70
2018-01-12T15:38:01.781Z,35.67
2018-01-12T15:40:35.796Z,38.80
2018-01-12T15:43:09.658Z,30.07
2018-01-12T15:45:43.709Z,37.20
2018-01-12T15:48:18.311Z,27.43
2018-01-12T15:50:52.448Z,35.97
2018-01-12T15:53:26.463Z,34.83
2018-01-12T15:56:00.468Z,29.30
2018-01-12T15:58:34.582Z,38.57
2018-01-12T16:01:08.407Z,38.57
2018-01-12T16:03:42.500Z,44.53
2018-01-12T16:06:16.574Z,41.13
2018-01-12T16:08:51.443Z,46.17
2018-01-12T16:11:25.636Z,41.93
2018-01-12T16:13:59.878Z,37.70
2018-01-12T16:16:34.053Z,46.30
2018-01-12T16:19:08.104Z,41.53
2018-01-12T16:21:42.296Z,41.33
2018-01-12T16:24:16.735Z,44.13
2018-01-12T16:26:50.847Z,37.87
2018-01-12T16:29:24.970Z,35.43
2018-01-12T16:31:58.938Z,44.70
2018-01-12T16:34:33.067Z,40.73
2018-01-12T16:37:07.299Z,46.10
2018-01-12T16:39:41.412Z,37.13
2018-01-12T16:42:15.321Z,40.07
2018-01-12T16:44:49.331Z,41.00
2018-01-12T16:47:23.311Z,47.13
2018-01-12T16:49:57.435Z,42.50
2018-01-12T16:52:31.648Z,48.50
2018-01-12T16:55:05.784Z,42.23
2018-01-12T16:57:39.793Z,48.80
2018-01-12T17:00:13.906Z,42.53
2018-01-12T17:02:47.917Z,44.27
2018-01-12T17:05:21.906Z,43.40
2018-01-12T17:07:55.733Z,37.80
2018-01-12T17:10:29.846Z,45.33
2018-01-12T17:13:03.936Z,38.30
2018-01-12T17:15:37.843Z,37.57
2018-01-12T17:18:11.946Z,41.07
2018-01-12T17:20:45.786Z,36.77
2018-01-12T17:23:19.786Z,45.27
2018-01-12T17:25:53.914Z,43.87
2018-01-12T17:28:28.022Z,43.57
2018-01-12T17:31:01.935Z,44.67
2018-01-12T17:33:35.941Z,47.63
2018-01-12T17:36:09.902Z,42.57
2018-01-12T17:38:43.968Z,42.77
2018-01-12T17:41:17.978Z,36.50
2018-01-12T17:43:52.700Z,48.10
2018-01-12T17:46:26.814Z,44.80
2018-01-12T17:49:00.927Z,39.13
2018-01-12T17:51:34.912Z,37.70
2018-01-12T17:54:09.152Z,49.10
2018-01-12T17:56:43.060Z,36.30
2018-01-12T17:59:17.023Z,47.53
2018-01-12T18:01:51.160Z,34.03
2018-01-12T18:04:25.097Z,48.17
2018-01-12T18:06:59.180Z,41.57
2018-01-12T18:09:33.266Z,46.70
2018-01-12T18:12:07.435Z,37.60
2018-01-12T18:14:41.416Z,44.40
2018-01-12T18:17:15.503Z,36.93
2018-01-12T18:19:49.435Z,43.53
2018-01-12T18:22:23.677Z,33.70
2018-01-12T18:24:58.468Z,45.20
2018-01-12T18:27:32.597Z,42.57
2018-01-12T18:30:06.535Z,43.27
2018-01-12T18:32:40.651Z,37.03
2018-01-12T18:35:14.570Z,43.10
2018-01-12T18:37:48.735Z,48.10
2018-01-12T18:40:22.800Z,47.30
2018-01-12T18:42:56.839Z,42.20
2018-01-12T18:45:31.638Z,51.33
2018-01-12T18:48:05.674Z,56.30
2018-01-12T18:50:39.784Z,64.33
2018-01-12T18:53:13.939Z,68.43
2018-01-12T18:55:47.999Z,81.67
2018-01-12T18:58:22.019Z,57.67
2018-01-12T19:00:56.887Z,53.63
2018-01-12T19:03:31.599Z,53.10
2018-01-12T19:06:06.611Z,49.57
2018-01-12T19:08:41.249Z,49.33
2018-01-12T19:11:15.664Z,47.37
2018-01-12T19:13:49.699Z,37.20
2018-01-12T19:16:23.828Z,40.70
2018-01-12T19:18:58.067Z,39.80
2018-01-12T19:21:32.064Z,38.67
2018-01-12T19:24:06.207Z,44.60
2018-01-12T19:26:40.331Z,43.53
2018-01-12T19:29:14.351Z,36.63
2018-01-12T19:31:48.389Z,41.53
2018-01-12T19:34:22.424Z,44.70
2018-01-12T19:36:56.516Z,45.50
2018-01-12T19:39:30.476Z,40.00
2018-01-12T19:42:04.540Z,42.60
2018-01-12T19:44:38.495Z,47.50
2018-01-12T19:47:12.599Z,40.90
2018-01-12T19:49:46.648Z,43.93
2018-01-12T19:52:21.573Z,41.80
2018-01-12T19:54:55.608Z,45.27
2018-01-12T19:57:29.436Z,42.60
2018-01-12T20:00:03.659Z,46.60
2018-01-12T20:02:37.607Z,46.23
2018-01-12T20:05:11.711Z,40.80
2018-01-12T20:07:45.868Z,42.50
2018-01-12T20:10:20.112Z,40.50
2018-01-12T20:12:54.126Z,34.73
2018-01-12T20:15:28.075Z,34.47
2018-01-12T20:18:02.323Z,29.50
2018-01-12T20:20:36.546Z,42.23
2018-01-12T20:23:10.598Z,42.70
2018-01-12T20:25:44.863Z,35.60
2018-01-12T20:28:18.947Z,33.10
2018-01-12T20:30:52.952Z,32.57
2018-01-12T20:33:27.175Z,32.33
2018-01-12T20:36:01.215Z,39.80
2018-01-12T20:38:35.175Z,30.10
2018-01-12T20:41:10.021Z,33.47
2018-01-12T20:43:43.736Z,30.73
2018-01-12T20:46:17.821Z,31.47
2018-01-12T20:48:52.775Z,30.43
2018-01-12T20:51:26.711Z,35.73
2018-01-12T20:54:00.772Z,31.90
2018-01-12T20:56:34.898Z,34.50
2018-01-12T20:59:08.707Z,30.00
2018-01-12T21:01:42.695Z,33.77
2018-01-12T21:04:16.703Z,26.63
2018-01-12T21:06:50.751Z,34.47
2018-01-12T21:09:25.650Z,30.30
2018-01-12T21:11:59.815Z,30.70
2018-01-12T21:14:33.778Z,34.27
2018-01-12T21:17:07.930Z,38.57
2018-01-12T21:19:42.711Z,41.83
2018-01-12T21:22:16.718Z,40.10
2018-01-12T21:24:51.670Z,52.13
2018-01-12T21:27:25.736Z,34.30
2018-01-12T21:29:59.430Z,30.53
2018-01-12T21:32:33.360Z,31.73
2018-01-12T21:35:07.540Z,32.20
2018-01-12T21:37:42.406Z,33.00
2018-01-12T21:40:16.478Z,33.80
2018-01-12T21:42:50.623Z,34.97
2018-01-12T21:45:24.571Z,31.30
2018-01-12T21:47:58.761Z,36.50
2018-01-12T21:50:32.856Z,30.60
2018-01-12T21:53:06.856Z,30.83
2018-01-12T21:55:41.027Z,31.03
2018-01-12T21:58:15.179Z,29.80
2018-01-12T22:00:49.970Z,30.77
2018-01-12T22:03:24.063Z,31.57
2018-01-12T22:05:58.323Z,33.50
2018-01-12T22:08:33.132Z,27.23
2018-01-12T22:11:07.225Z,32.20
2018-01-12T22:13:41.491Z,29.63
2018-01-12T22:16:16.306Z,27.40
2018-01-12T22:18:51.017Z,25.23
2018-01-12T22:21:26.052Z,25.90
2018-01-12T22:24:00.054Z,23.37
2018-01-12T22:26:34.207Z,27.00
2018-01-12T22:29:08.469Z,25.60
2018-01-12T22:31:43.428Z,30.20
2018-01-12T22:34:17.563Z,21.50
2018-01-12T22:36:51.409Z,29.40
2018-01-12T22:39:26.199Z,22.37
2018-01-12T22:42:00.420Z,27.07
2018-01-12T22:44:34.416Z,24.87
2018-01-12T22:47:08.463Z,23.00
2018-01-12T22:49:42.546Z,26.00
2018-01-12T22:52:17.359Z,26.50
2018-01-12T22:54:51.482Z,25.23
2018-01-12T22:57:25.520Z,31.07
2018-01-12T22:59:59.704Z,17.27
2018-01-12T23:02:33.744Z,25.60
2018-01-12T23:05:07.947Z,22.30
2018-01-12T23:07:42.656Z,26.33
2018-01-12T23:10:16.739Z,20.90
2018-01-12T23:12:50.908Z,22.03
2018-01-12T23:15:24.958Z,20.90
2018-01-12T23:17:59.152Z,20.83
2018-01-12T23:20:33.082Z,21.50
2018-01-12T23:23:07.112Z,19.63
2018-01-12T23:25:41.400Z,22.17
2018-01-12T23:28:15.439Z,18.30
2018-01-12T23:30:49.624Z,16.90
2018-01-12T23:33:23.930Z,27.73
2018-01-12T23:35:58.682Z,22.93
2018-01-12T23:38:33.031Z,22.87
2018-01-12T23:41:07.170Z,22.27
2018-01-12T23:43:41.319Z,20.33
2018-01-12T23:46:15.527Z,23.37
2018-01-12T23:48:50.274Z,23.37
2018-01-12T23:51:24.383Z,23.03
2018-01-12T23:53:58.296Z,21.33
2018-01-12T23:56:33.146Z,31.93
2018-01-12T23:59:07.184Z,30.80
